Time;durP1;ratioP1;P1;durP2;ratioP2;P2;SDS_P1;SDS_P2;PMS_P1;PMS_P2;Temp;Humidity;BMP_temperature;BMP_pressure;BME280_temperature;BME280_humidity;BME280_pressure;Samples;Min_cycle;Max_cycle;Signal;HPM_P1;HPM_P2
2021/11/12 00:04:56;;;;;;;15.30;7.75;;;;;;;-1.07;100.00;93430.09;2088480;28;20500;-87
2021/11/12 00:13:24;;;;;;;11.88;7.57;;;;;;;-1.04;100.00;93421.56;2114402;28;20023;-84
2021/11/12 00:14:26;;;;;;;12.65;8.15;;;;;;;-1.04;100.00;93415.56;2115220;28;20016;-84
2021/11/12 00:15:27;;;;;;;14.02;8.25;;;;;;;-1.04;100.00;93418.16;2104819;28;20028;-83
2021/11/12 00:16:28;;;;;;;14.80;7.80;;;;;;;-1.06;100.00;93415.88;2106582;28;20055;-84
2021/11/12 00:17:32;;;;;;;11.25;7.55;;;;;;;-1.08;100.00;93419.94;2106740;28;20380;-84
2021/11/12 00:18:35;;;;;;;13.10;7.80;;;;;;;-1.09;100.00;93421.81;2105241;28;20027;-84
2021/11/12 00:19:37;;;;;;;11.88;7.88;;;;;;;-1.08;100.00;93409.44;2102090;28;20537;-83
2021/11/12 00:20:38;;;;;;;14.07;8.02;;;;;;;-1.11;100.00;93413.50;2113163;28;20611;-86
2021/11/12 00:21:40;;;;;;;16.33;8.50;;;;;;;-1.09;100.00;93413.94;2104398;28;20024;-87
2021/11/12 00:22:41;;;;;;;15.82;9.02;;;;;;;-1.05;100.00;93409.53;2096549;28;20024;-84
2021/11/12 00:23:42;;;;;;;14.05;8.13;;;;;;;-1.08;100.00;93409.44;2102398;28;20027;-84
2021/11/12 00:24:43;;;;;;;10.90;7.60;;;;;;;-1.22;100.00;93409.06;2100528;28;20495;-84
2021/11/12 00:25:45;;;;;;;13.55;8.38;;;;;;;-1.21;100.00;93407.97;2097780;28;20210;-84
2021/11/12 00:26:47;;;;;;;13.50;8.13;;;;;;;-1.23;100.00;93405.66;2103106;28;20374;-85
2021/11/12 00:27:48;;;;;;;12.80;7.38;;;;;;;-1.14;100.00;93403.69;2106722;28;20086;-85
2021/11/12 00:28:52;;;;;;;10.70;6.93;;;;;;;-1.15;100.00;93404.75;2103545;28;20107;-85
2021/11/12 00:30:23;;;;;;;10.57;7.22;;;;;;;-1.13;100.00;93409.69;2105439;28;20380;-83
2021/11/12 00:31:24;;;;;;;12.65;7.53;;;;;;;-1.14;100.00;93408.94;2113814;28;20096;-82
2021/11/12 00:38:45;;;;;;;10.80;6.60;;;;;;;-1.17;100.00;93416.69;2106198;28;20024;-83
2021/11/12 00:39:48;;;;;;;10.43;7.28;;;;;;;-1.11;100.00;93412.72;2117258;27;20507;-84
2021/11/12 00:40:59;;;;;;;11.40;7.03;;;;;;;-1.12;100.00;93411.22;2110417;28;20583;-85
2021/11/12 00:43:12;;;;;;;11.15;7.47;;;;;;;-1.08;100.00;93407.59;2098780;28;20976;-84
2021/11/12 00:45:20;;;;;;;13.27;7.03;;;;;;;-1.15;100.00;93399.50;2104672;28;20525;-85
2021/11/12 00:46:35;;;;;;;9.75;6.82;;;;;;;-1.14;100.00;93401.06;2111732;28;20074;-86
2021/11/12 00:47:58;;;;;;;14.82;6.80;;;;;;;-1.11;100.00;93402.25;2110090;28;20050;-84
2021/11/12 00:49:03;;;;;;;10.40;7.55;;;;;;;-1.19;100.00;93406.53;2114117;28;20018;-85
2021/11/12 00:50:24;;;;;;;12.80;7.60;;;;;;;-1.16;100.00;93403.25;2104915;28;20028;-85
2021/11/12 00:51:28;;;;;;;13.70;7.30;;;;;;;-1.17;100.00;93396.47;2111697;28;20103;-82
2021/11/12 00:54:07;;;;;;;12.00;6.65;;;;;;;-1.19;100.00;93405.75;2078016;28;20032;-88
2021/11/12 00:55:08;;;;;;;9.48;6.95;;;;;;;-1.25;100.00;93400.00;2073123;28;20115;-84
2021/11/12 00:56:09;;;;;;;10.00;6.78;;;;;;;-1.18;100.00;93404.69;2077766;28;20030;-86
2021/11/12 00:57:10;;;;;;;13.93;7.50;;;;;;;-1.24;100.00;93398.13;2106165;28;20381;-83
2021/11/12 00:58:15;;;;;;;13.00;7.20;;;;;;;-1.26;100.00;93406.34;2095886;28;20020;-84
2021/11/12 00:59:18;;;;;;;10.70;6.97;;;;;;;-1.18;100.00;93400.19;2091390;28;20025;-87
2021/11/12 01:00:20;;;;;;;9.05;6.53;;;;;;;-1.17;100.00;93400.97;2098211;28;20066;-83
2021/11/12 01:01:23;;;;;;;10.73;6.38;;;;;;;-1.12;100.00;93401.47;2098383;28;20063;-82
2021/11/12 01:02:26;;;;;;;10.52;6.75;;;;;;;-1.15;100.00;93404.00;2106456;28;20028;-81
2021/11/12 01:03:28;;;;;;;13.02;7.07;;;;;;;-1.14;100.00;93402.91;2098523;28;20036;-84
2021/11/12 01:04:29;;;;;;;12.70;6.82;;;;;;;-1.16;100.00;93405.09;2098053;28;20111;-84
2021/11/12 01:05:30;;;;;;;13.25;6.85;;;;;;;-1.23;100.00;93402.28;2097927;28;20054;-84
2021/11/12 01:06:31;;;;;;;10.93;6.97;;;;;;;-1.21;100.00;93405.34;2087759;28;20075;-82
2021/11/12 01:07:33;;;;;;;10.60;7.35;;;;;;;-1.27;100.00;93402.97;2090592;28;20490;-86
2021/11/12 01:08:34;;;;;;;9.30;6.20;;;;;;;-1.25;100.00;93396.63;2091449;28;20028;-83
2021/11/12 01:09:35;;;;;;;8.88;6.65;;;;;;;-1.30;100.00;93398.38;2103907;28;20412;-85
2021/11/12 01:10:36;;;;;;;8.45;6.25;;;;;;;-1.26;100.00;93395.84;2101168;28;20020;-86
2021/11/12 01:11:39;;;;;;;10.75;6.90;;;;;;;-1.26;100.00;93398.47;2102090;28;20027;-82
2021/11/12 01:12:41;;;;;;;13.00;6.47;;;;;;;-1.24;100.00;93396.28;2103455;28;20034;-83
2021/11/12 01:13:44;;;;;;;8.27;6.30;;;;;;;-1.31;100.00;93396.88;2098260;28;20016;-83
2021/11/12 01:14:45;;;;;;;8.85;6.47;;;;;;;-1.29;100.00;93394.66;2098900;28;20028;-84
2021/11/12 01:15:46;;;;;;;8.75;6.93;;;;;;;-1.28;100.00;93404.03;2102058;28;20028;-84
2021/11/12 01:16:48;;;;;;;7.97;6.53;;;;;;;-1.27;100.00;93395.09;2106563;28;20119;-83
2021/11/12 01:17:50;;;;;;;10.48;6.43;;;;;;;-1.24;100.00;93400.75;2107382;28;20031;-83
2021/11/12 01:18:52;;;;;;;10.85;7.28;;;;;;;-1.27;100.00;93394.34;2098334;28;20469;-83
2021/11/12 01:19:53;;;;;;;10.10;6.60;;;;;;;-1.19;100.00;93398.66;2106514;28;20477;-82
2021/11/12 01:20:54;;;;;;;10.68;6.95;;;;;;;-1.17;100.00;93391.22;2101757;28;20020;-83
2021/11/12 01:21:55;;;;;;;8.02;6.03;;;;;;;-1.18;100.00;93397.59;2102815;28;20017;-85
2021/11/12 01:22:56;;;;;;;8.75;7.28;;;;;;;-1.18;100.00;93391.56;2103024;28;20663;-84
2021/11/12 01:23:58;;;;;;;12.60;6.32;;;;;;;-1.22;100.00;93396.72;2091411;28;20029;-86
2021/11/12 01:25:00;;;;;;;11.68;7.57;;;;;;;-1.19;100.00;93393.41;2087767;28;20017;-86
2021/11/12 01:26:02;;;;;;;9.32;6.07;;;;;;;-1.13;100.00;93389.47;2098401;28;20029;-85
2021/11/12 01:27:03;;;;;;;10.55;6.38;;;;;;;-1.13;100.00;93386.84;2097040;28;20481;-83
2021/11/12 01:28:05;;;;;;;11.25;7.03;;;;;;;-1.15;100.00;93383.03;2105017;28;20028;-82
2021/11/12 01:29:06;;;;;;;11.23;6.18;;;;;;;-1.14;100.00;93385.31;2106143;28;20027;-84
2021/11/12 01:30:08;;;;;;;8.38;6.18;;;;;;;-1.12;100.00;93388.38;2100969;28;20073;-85
2021/11/12 01:31:10;;;;;;;8.93;6.40;;;;;;;-1.19;100.00;93388.16;2105068;28;20016;-86
2021/11/12 01:32:21;;;;;;;9.30;6.45;;;;;;;-1.16;100.00;93389.38;2093698;28;20029;-85
2021/11/12 01:33:22;;;;;;;8.35;5.68;;;;;;;-1.27;100.00;93379.38;2105383;28;20533;-84
2021/11/12 01:34:23;;;;;;;9.13;6.55;;;;;;;-1.31;100.00;93383.75;2097667;28;20024;-85
2021/11/12 01:35:24;;;;;;;10.13;6.97;;;;;;;-1.28;100.00;93369.94;2097501;28;20021;-88
2021/11/12 01:36:37;;;;;;;10.77;6.45;;;;;;;-1.27;100.00;93378.59;2112518;28;20519;-84
2021/11/12 01:37:39;;;;;;;11.45;7.00;;;;;;;-1.21;100.00;93381.75;2113100;28;20023;-86
2021/11/12 01:38:40;;;;;;;8.68;6.05;;;;;;;-1.22;100.00;93378.38;2110302;28;20109;-85
2021/11/12 01:39:41;;;;;;;9.77;6.53;;;;;;;-1.14;100.00;93374.84;2097578;28;20028;-89
2021/11/12 01:40:43;;;;;;;7.82;5.85;;;;;;;-1.19;100.00;93372.44;2097385;28;20036;-84
2021/11/12 01:41:50;;;;;;;11.80;7.13;;;;;;;-1.35;100.00;93369.03;2096312;28;20027;-85
2021/11/12 01:43:04;;;;;;;8.70;6.18;;;;;;;-1.28;100.00;93377.81;2098358;28;20029;-84
2021/11/12 01:44:08;;;;;;;12.80;6.20;;;;;;;-1.28;100.00;93367.34;2103424;28;20020;-86
2021/11/12 01:45:10;;;;;;;9.68;6.85;;;;;;;-1.30;100.00;93364.28;2094015;28;20072;-85
2021/11/12 01:46:25;;;;;;;10.15;6.65;;;;;;;-1.25;100.00;93360.66;2090833;28;20024;-84
2021/11/12 01:48:53;;;;;;;11.93;6.50;;;;;;;-1.22;100.00;93359.25;2100638;28;20070;-88
2021/11/12 01:49:57;;;;;;;9.10;6.22;;;;;;;-1.30;100.00;93353.81;2111974;28;20118;-87
2021/11/12 01:53:26;;;;;;;12.90;7.30;;;;;;;-1.26;100.00;93353.91;2104016;28;20460;-85
2021/11/12 01:59:36;;;;;;;8.48;6.38;;;;;;;-1.38;100.00;93346.84;2101086;28;20492;-85
2021/11/12 02:00:37;;;;;;;9.75;6.47;;;;;;;-1.31;100.00;93343.66;2111665;28;20376;-82
2021/11/12 02:01:57;;;;;;;13.32;7.25;;;;;;;-1.36;100.00;93343.88;2104528;28;20060;-86
2021/11/12 02:02:59;;;;;;;9.98;6.47;;;;;;;-1.34;100.00;93341.69;2107889;27;20024;-81
2021/11/12 02:04:01;;;;;;;9.30;6.47;;;;;;;-1.30;100.00;93350.44;2105631;28;20492;-84
2021/11/12 02:05:03;;;;;;;11.85;6.78;;;;;;;-1.23;100.00;93342.72;2097839;28;20103;-85
2021/11/12 02:06:04;;;;;;;8.68;6.70;;;;;;;-1.25;100.00;93338.94;2101970;28;20026;-84
2021/11/12 02:08:34;;;;;;;;;;;;;;;-1.27;100.00;93345.28;2141275;27;20114;-87
2021/11/12 02:09:36;;;;;;;9.18;5.93;;;;;;;-1.33;100.00;93330.88;2117909;28;19911;-86
2021/11/12 02:10:37;;;;;;;12.07;6.82;;;;;;;-1.38;100.00;93332.97;2119333;27;20031;-87
2021/11/12 02:11:39;;;;;;;10.82;6.60;;;;;;;-1.33;100.00;93335.34;2127908;27;20030;-86
2021/11/12 02:13:55;;;;;;;12.25;6.47;;;;;;;-1.30;100.00;93337.31;2125559;27;20027;-86
2021/11/12 02:14:58;;;;;;;13.43;6.85;;;;;;;-1.36;100.00;93328.94;2119861;28;20433;-86
2021/11/12 02:15:59;;;;;;;15.15;7.32;;;;;;;-1.41;100.00;93325.78;2109371;28;20119;-86
2021/11/12 02:17:13;;;;;;;14.82;7.43;;;;;;;-1.41;100.00;93334.41;2109331;28;20073;-85
2021/11/12 02:18:16;;;;;;;9.77;6.60;;;;;;;-1.36;100.00;93325.53;2128063;27;20034;-86
2021/11/12 02:19:19;;;;;;;11.77;6.63;;;;;;;-1.41;100.00;93323.16;2124789;27;20050;-86
2021/11/12 02:20:57;;;;;;;12.13;7.35;;;;;;;-1.38;100.00;93327.72;2113251;28;20028;-86
2021/11/12 02:22:11;;;;;;;12.07;6.35;;;;;;;-1.36;100.00;93318.44;2120956;27;20513;-87
2021/11/12 02:23:13;;;;;;;8.85;6.15;;;;;;;-1.31;100.00;93322.69;2110301;28;20028;-86
2021/11/12 02:24:15;;;;;;;13.70;7.10;;;;;;;-1.24;100.00;93317.59;2093200;28;20052;-86
2021/11/12 02:25:25;;;;;;;13.32;7.72;;;;;;;-1.23;100.00;93319.13;2099625;28;20021;-86
2021/11/12 02:26:28;;;;;;;10.02;6.72;;;;;;;-1.30;100.00;93311.09;2109362;28;20032;-86
2021/11/12 02:27:53;;;;;;;9.23;6.82;;;;;;;-1.43;100.00;93315.63;2114972;27;20403;-87
2021/11/12 02:28:56;;;;;;;10.00;6.93;;;;;;;-1.35;100.00;93327.06;2133153;27;20039;-86
2021/11/12 02:29:57;;;;;;;11.30;6.18;;;;;;;-1.29;100.00;93323.09;2114721;28;20028;-86
2021/11/12 02:30:59;;;;;;;13.13;6.97;;;;;;;-1.29;100.00;93320.47;2095068;28;20041;-86
2021/11/12 02:32:00;;;;;;;11.88;6.45;;;;;;;-1.33;100.00;93312.50;2102751;28;20032;-86
2021/11/12 02:33:13;;;;;;;11.73;7.25;;;;;;;-1.34;100.00;93316.25;2102585;28;20028;-87
2021/11/12 02:34:14;;;;;;;9.70;6.65;;;;;;;-1.33;100.00;93315.13;2094381;28;20047;-87
2021/11/12 02:35:16;;;;;;;10.32;6.88;;;;;;;-1.32;100.00;93315.91;2092625;28;20079;-87
2021/11/12 02:36:19;;;;;;;11.07;6.53;;;;;;;-1.31;100.00;93317.44;2098017;28;20116;-86
2021/11/12 02:37:24;;;;;;;11.43;6.85;;;;;;;-1.28;100.00;93317.50;2102588;28;20021;-86
2021/11/12 02:38:26;;;;;;;9.45;7.18;;;;;;;-1.24;100.00;93308.97;2091249;28;20458;-88
2021/11/12 02:39:28;;;;;;;11.27;6.38;;;;;;;-1.28;100.00;93314.88;2100414;28;20036;-86
2021/11/12 02:40:30;;;;;;;10.75;7.20;;;;;;;-1.28;100.00;93322.75;2110563;28;20020;-86
2021/11/12 02:41:32;;;;;;;9.02;6.35;;;;;;;-1.28;100.00;93311.50;2110639;28;20027;-86
2021/11/12 02:42:33;;;;;;;9.70;6.50;;;;;;;-1.29;100.00;93313.38;2100429;28;20496;-86
2021/11/12 02:43:37;;;;;;;12.60;6.93;;;;;;;-1.34;100.00;93316.25;2098696;28;20062;-86
2021/11/12 02:44:39;;;;;;;14.40;7.13;;;;;;;-1.41;100.00;93317.91;2113392;27;20472;-86
2021/11/12 02:45:40;;;;;;;10.13;6.80;;;;;;;-1.35;100.00;93319.97;2122960;27;20685;-86
2021/11/12 02:46:41;;;;;;;11.85;6.63;;;;;;;-1.33;100.00;93317.75;2112803;28;20027;-86
2021/11/12 02:47:42;;;;;;;11.82;6.60;;;;;;;-1.38;100.00;93312.00;2106115;28;20048;-86
2021/11/12 02:48:44;;;;;;;14.82;6.68;;;;;;;-1.34;100.00;93313.63;2101387;28;20032;-85
2021/11/12 02:49:46;;;;;;;10.40;6.85;;;;;;;-1.29;100.00;93304.75;2113213;27;20110;-86
2021/11/12 02:50:47;;;;;;;12.30;6.75;;;;;;;-1.19;100.00;93295.63;2121952;27;20027;-86
2021/11/12 02:51:48;;;;;;;8.82;7.03;;;;;;;-1.17;100.00;93299.44;2106454;28;20024;-87
2021/11/12 02:52:58;;;;;;;9.52;7.03;;;;;;;-1.13;100.00;93304.78;2097943;28;20024;-86
2021/11/12 02:54:02;;;;;;;9.20;6.18;;;;;;;-1.19;100.00;93293.75;2101347;28;20461;-86
2021/11/12 02:55:03;;;;;;;10.48;6.82;;;;;;;-1.33;100.00;93303.88;2102204;28;20123;-86
2021/11/12 02:56:11;;;;;;;9.07;6.60;;;;;;;-1.31;100.00;93296.47;2091720;28;20071;-86
2021/11/12 02:57:12;;;;;;;8.65;5.95;;;;;;;-1.27;100.00;93298.09;2101894;28;20028;-86
2021/11/12 02:58:14;;;;;;;9.75;6.85;;;;;;;-1.29;100.00;93302.13;2101993;28;20442;-86
2021/11/12 02:59:15;;;;;;;11.85;6.43;;;;;;;-1.24;100.00;93301.13;2101901;28;20028;-86
2021/11/12 03:00:22;;;;;;;12.23;6.55;;;;;;;-1.24;100.00;93299.25;2108392;28;20025;-87
2021/11/12 03:01:25;;;;;;;7.10;6.15;;;;;;;-1.36;100.00;93301.94;2107873;28;20027;-86
2021/11/12 03:02:26;;;;;;;9.48;6.80;;;;;;;-1.35;100.00;93301.63;2112485;28;20027;-87
2021/11/12 03:03:28;;;;;;;10.50;7.65;;;;;;;-1.32;100.00;93289.69;2120617;28;20944;-86
2021/11/12 03:04:30;;;;;;;9.68;6.60;;;;;;;-1.30;100.00;93298.75;2112639;28;20593;-85
2021/11/12 03:05:32;;;;;;;8.50;6.60;;;;;;;-1.26;100.00;93296.22;2099142;28;20470;-85
2021/11/12 03:06:35;;;;;;;14.20;7.05;;;;;;;-1.28;100.00;93293.91;2093759;28;20052;-85
2021/11/12 03:07:37;;;;;;;9.95;7.18;;;;;;;-1.27;100.00;93298.09;2099958;28;20032;-86
2021/11/12 03:08:38;;;;;;;9.93;6.70;;;;;;;-1.26;100.00;93296.22;2098668;28;20094;-86
2021/11/12 03:09:39;;;;;;;10.25;6.35;;;;;;;-1.26;100.00;93304.09;2107405;27;20048;-86
2021/11/12 03:10:40;;;;;;;7.90;6.45;;;;;;;-1.23;100.00;93287.66;2112954;28;20024;-86
2021/11/12 03:11:42;;;;;;;9.27;6.45;;;;;;;-1.18;100.00;93294.53;2095634;28;20033;-86
2021/11/12 03:12:44;;;;;;;7.65;6.03;;;;;;;-1.06;100.00;93292.59;2104129;28;20024;-86
2021/11/12 03:13:45;;;;;;;8.98;6.50;;;;;;;-1.08;100.00;93299.28;2112563;28;20465;-86
2021/11/12 03:14:47;;;;;;;10.15;6.32;;;;;;;-1.13;100.00;93294.28;2105900;28;20055;-86
2021/11/12 03:15:48;;;;;;;9.23;6.30;;;;;;;-1.22;100.00;93289.19;2107639;28;20114;-85
2021/11/12 03:16:50;;;;;;;10.13;6.13;;;;;;;-1.23;100.00;93292.91;2088114;28;20553;-86
2021/11/12 03:17:53;;;;;;;7.30;6.25;;;;;;;-1.18;100.00;93295.31;2099959;28;20032;-85
2021/11/12 03:18:56;;;;;;;8.18;6.38;;;;;;;-1.15;100.00;93288.59;2099832;28;20471;-86
2021/11/12 03:19:57;;;;;;;8.27;5.95;;;;;;;-1.13;100.00;93281.94;2096450;28;20214;-86
2021/11/12 03:21:01;;;;;;;8.85;6.05;;;;;;;-1.14;100.00;93285.66;2095903;28;20032;-87
2021/11/12 03:22:05;;;;;;;7.95;6.32;;;;;;;-1.16;100.00;93287.84;2104711;28;20024;-86
2021/11/12 03:23:12;;;;;;;11.65;6.53;;;;;;;-1.14;100.00;93290.13;2108310;28;20024;-86
2021/11/12 03:24:34;;;;;;;8.73;6.53;;;;;;;-1.32;100.00;93287.84;2087226;28;20029;-87
2021/11/12 03:25:48;;;;;;;7.68;5.38;;;;;;;-1.33;100.00;93290.78;2093477;28;20497;-86
2021/11/12 03:27:14;;;;;;;9.80;5.88;;;;;;;-1.23;100.00;93292.91;2108266;28;20060;-86
2021/11/12 03:31:21;;;;;;;6.10;5.50;;;;;;;-0.82;100.00;93290.91;2112244;28;20027;-86
2021/11/12 04:01:33;;;;;;;7.15;5.75;;;;;;;-1.46;100.00;93289.31;2116624;27;20028;-86
2021/11/12 04:02:29;;;;;;;12.18;5.72;;;;;;;-1.52;100.00;93294.06;2097734;28;20053;-86
2021/11/12 04:03:44;;;;;;;8.65;5.63;;;;;;;-1.48;100.00;93286.28;2108188;28;20110;-86
2021/11/12 04:30:34;;;;;;;10.13;6.10;;;;;;;-1.28;100.00;93280.03;2121562;27;20455;-86
2021/11/12 04:39:43;;;;;;;14.23;6.53;;;;;;;-1.40;100.00;93273.03;2114352;27;20027;-86
2021/11/12 05:12:42;;;;;;;7.85;5.00;;;;;;;-1.50;100.00;93272.75;2101647;28;20035;-86
2021/11/12 05:44:02;;;;;;;6.70;5.17;;;;;;;-1.57;100.00;93260.22;2115916;27;20031;-86
2021/11/12 05:50:04;;;;;;;6.55;5.10;;;;;;;-1.63;100.00;93266.78;2105983;28;20031;-86
2021/11/12 05:51:22;;;;;;;7.30;5.05;;;;;;;-1.59;100.00;93263.16;2083696;28;20477;-86
2021/11/12 05:56:07;;;;;;;7.85;4.65;;;;;;;-1.58;100.00;93258.69;2105889;28;20064;-86
2021/11/12 05:57:09;;;;;;;8.50;5.50;;;;;;;-1.67;100.00;93260.69;2097389;28;20044;-86
2021/11/12 05:58:10;;;;;;;8.10;5.50;;;;;;;-1.70;100.00;93264.75;2097526;28;20111;-86
2021/11/12 05:59:12;;;;;;;13.32;6.45;;;;;;;-1.68;100.00;93267.03;2089333;28;20036;-87
2021/11/12 06:00:16;;;;;;;9.80;5.90;;;;;;;-1.67;100.00;93264.06;2097776;28;20051;-87
2021/11/12 06:01:17;;;;;;;9.23;6.35;;;;;;;-1.64;100.00;93263.41;2103532;28;20119;-86
2021/11/12 06:02:18;;;;;;;8.50;6.13;;;;;;;-1.61;100.00;93262.75;2089508;28;20024;-86
2021/11/12 06:03:19;;;;;;;10.15;6.07;;;;;;;-1.70;100.00;93269.25;2097434;28;20021;-86
2021/11/12 06:04:24;;;;;;;9.77;5.60;;;;;;;-1.68;100.00;93270.41;2089085;28;20187;-86
2021/11/12 06:05:25;;;;;;;7.57;6.13;;;;;;;-1.63;100.00;93264.16;2089564;28;20074;-86
2021/11/12 06:06:26;;;;;;;7.72;6.00;;;;;;;-1.69;100.00;93266.28;2105772;28;20431;-85
2021/11/12 06:07:28;;;;;;;9.05;5.88;;;;;;;-1.68;100.00;93272.28;2105606;28;20127;-87
2021/11/12 06:08:29;;;;;;;10.07;6.05;;;;;;;-1.68;100.00;93272.28;2085671;28;20037;-87
2021/11/12 06:09:31;;;;;;;7.38;5.65;;;;;;;-1.66;100.00;93265.63;2093110;28;20023;-86
2021/11/12 06:10:32;;;;;;;9.23;6.15;;;;;;;-1.68;100.00;93273.03;2085191;28;20028;-86
2021/11/12 06:11:34;;;;;;;6.20;5.38;;;;;;;-1.63;100.00;93270.16;2101656;28;20028;-86
2021/11/12 06:12:35;;;;;;;6.82;5.35;;;;;;;-1.59;100.00;93268.41;2109441;28;20052;-86
2021/11/12 06:13:36;;;;;;;10.25;6.18;;;;;;;-1.55;100.00;93268.50;2105913;28;20035;-87
2021/11/12 06:14:37;;;;;;;6.93;6.22;;;;;;;-1.48;100.00;93268.69;2089066;28;20457;-86
2021/11/12 06:15:39;;;;;;;10.90;7.07;;;;;;;-1.53;100.00;93271.56;2101174;28;20028;-86
2021/11/12 06:16:40;;;;;;;9.43;6.88;;;;;;;-1.57;100.00;93270.72;2113273;28;20500;-88
2021/11/12 06:17:43;;;;;;;9.18;6.72;;;;;;;-1.66;100.00;93275.34;2094189;28;20020;-84
2021/11/12 06:18:44;;;;;;;8.00;6.68;;;;;;;-1.67;100.00;93279.78;2102122;28;20460;-85
2021/11/12 06:19:45;;;;;;;8.25;6.45;;;;;;;-1.62;100.00;93274.34;2114331;28;20044;-86
2021/11/12 06:20:45;;;;;;;9.27;6.38;;;;;;;-1.58;100.00;93275.19;2091628;28;20032;-85
2021/11/12 06:21:46;;;;;;;6.95;5.80;;;;;;;-1.63;100.00;93274.66;2111529;28;20507;-86
2021/11/12 06:22:47;;;;;;;10.90;6.50;;;;;;;-1.67;100.00;93268.56;2097306;28;20024;-86
2021/11/12 06:23:49;;;;;;;9.45;6.55;;;;;;;-1.65;100.00;93266.38;2089129;28;20079;-86
2021/11/12 06:24:50;;;;;;;8.38;6.28;;;;;;;-1.63;100.00;93269.41;2089172;28;20355;-88
2021/11/12 06:25:51;;;;;;;7.82;6.50;;;;;;;-1.55;100.00;93264.03;2089130;28;20039;-86
2021/11/12 06:26:53;;;;;;;8.77;6.78;;;;;;;-1.52;100.00;93265.22;2088893;28;20536;-87
2021/11/12 06:27:54;;;;;;;6.95;5.93;;;;;;;-1.53;100.00;93268.94;2099262;28;20412;-86
2021/11/12 06:28:58;;;;;;;7.68;5.55;;;;;;;-1.71;100.00;93268.47;2088952;28;20505;-86
2021/11/12 06:30:00;;;;;;;7.47;4.90;;;;;;;-1.69;100.00;93263.66;2097606;28;20500;-88
2021/11/12 06:31:01;;;;;;;8.88;5.45;;;;;;;-1.74;100.00;93271.75;2089180;28;20061;-86
2021/11/12 06:32:03;;;;;;;8.35;5.57;;;;;;;-1.64;100.00;93273.91;2097448;28;20119;-86
2021/11/12 06:33:04;;;;;;;9.10;5.53;;;;;;;-1.60;100.00;93274.00;2088931;28;20056;-86
2021/11/12 06:34:05;;;;;;;6.63;5.40;;;;;;;-1.60;100.00;93272.13;2097438;28;20036;-86
2021/11/12 06:35:06;;;;;;;9.77;5.72;;;;;;;-1.57;100.00;93268.84;2097187;28;20036;-87
2021/11/12 06:36:07;;;;;;;7.45;5.95;;;;;;;-1.58;100.00;93262.09;2089843;28;20029;-86
2021/11/12 06:37:09;;;;;;;7.90;5.40;;;;;;;-1.57;100.00;93260.97;2097256;28;20063;-86
2021/11/12 06:38:12;;;;;;;10.98;6.53;;;;;;;-1.55;100.00;93264.03;2101552;28;20020;-86
2021/11/12 06:39:14;;;;;;;8.48;5.93;;;;;;;-1.57;100.00;93268.09;2103904;28;20115;-86
2021/11/12 06:40:20;;;;;;;6.88;5.25;;;;;;;-1.50;100.00;93257.78;2100234;28;20046;-86
2021/11/12 06:42:50;;;;;;;;;;;;;;;-1.58;100.00;93267.34;2117023;28;20019;-86
2021/11/12 06:50:12;;;;;;;9.00;5.53;;;;;;;-1.51;100.00;93271.97;2109534;28;20248;-86
2021/11/12 06:51:15;;;;;;;8.05;5.22;;;;;;;-1.50;100.00;93275.34;2113912;28;20022;-87
2021/11/12 06:52:17;;;;;;;7.70;5.28;;;;;;;-1.45;100.00;93273.25;2098386;28;20021;-86
2021/11/12 06:53:18;;;;;;;10.18;6.20;;;;;;;-1.42;100.00;93269.97;2105700;28;20024;-87
2021/11/12 06:54:19;;;;;;;6.93;4.97;;;;;;;-1.48;100.00;93273.94;2097009;28;20661;-87
2021/11/12 06:55:20;;;;;;;5.95;4.95;;;;;;;-1.46;100.00;93268.34;2082377;28;20493;-86
2021/11/12 06:56:24;;;;;;;5.57;4.90;;;;;;;-1.47;100.00;93264.22;2090614;28;20025;-85
2021/11/12 06:57:25;;;;;;;9.27;5.70;;;;;;;-1.48;100.00;93266.06;2085753;28;20370;-87
2021/11/12 06:58:27;;;;;;;7.18;5.72;;;;;;;-1.47;100.00;93272.84;2101266;28;20027;-86
2021/11/12 06:59:29;;;;;;;8.20;5.78;;;;;;;-1.40;100.00;93265.16;2098012;28;20568;-86
2021/11/12 07:00:30;;;;;;;8.65;6.10;;;;;;;-1.34;100.00;93260.44;2091510;28;20020;-86
2021/11/12 07:01:31;;;;;;;7.38;5.50;;;;;;;-1.30;100.00;93253.41;2088026;28;20021;-86
2021/11/12 07:02:32;;;;;;;8.15;5.63;;;;;;;-1.29;100.00;93255.69;2092363;28;20654;-86
2021/11/12 07:03:33;;;;;;;7.88;5.93;;;;;;;-1.19;100.00;93251.78;2101502;28;20066;-86
2021/11/12 07:04:34;;;;;;;8.02;6.45;;;;;;;-1.26;100.00;93256.88;2109863;27;20027;-86
2021/11/12 07:05:35;;;;;;;10.35;5.97;;;;;;;-1.31;100.00;93255.28;2112675;28;20695;-86
2021/11/12 07:06:36;;;;;;;7.55;5.63;;;;;;;-1.33;100.00;93254.06;2095822;28;20055;-86
2021/11/12 07:07:37;;;;;;;8.32;5.80;;;;;;;-1.35;100.00;93266.78;2092480;28;20016;-86
2021/11/12 07:08:38;;;;;;;7.75;5.72;;;;;;;-1.32;100.00;93260.84;2095400;28;20056;-86
2021/11/12 07:09:40;;;;;;;7.38;5.57;;;;;;;-1.21;100.00;93261.13;2092739;28;20012;-87
2021/11/12 07:10:41;;;;;;;10.95;6.13;;;;;;;-1.14;100.00;93256.03;2095569;28;20020;-86
2021/11/12 07:11:42;;;;;;;9.88;5.75;;;;;;;-1.12;100.00;93265.09;2087654;28;20601;-86
2021/11/12 07:12:43;;;;;;;10.32;6.05;;;;;;;-1.01;100.00;93265.34;2078458;28;20099;-86
2021/11/12 07:13:44;;;;;;;10.93;6.32;;;;;;;-1.03;100.00;93268.31;2076734;28;20122;-87
2021/11/12 07:14:45;;;;;;;10.15;5.97;;;;;;;-0.99;100.00;93257.16;2088113;28;20290;-87
2021/11/12 07:15:46;;;;;;;9.75;5.18;;;;;;;-0.98;100.00;93263.91;2088115;28;20707;-87
2021/11/12 07:16:48;;;;;;;9.18;6.22;;;;;;;-1.02;100.00;93261.97;2079749;28;20026;-86
2021/11/12 07:17:49;;;;;;;9.60;5.72;;;;;;;-0.89;100.00;93261.88;2086209;28;20031;-86
2021/11/12 07:18:50;;;;;;;11.18;5.90;;;;;;;-0.81;100.00;93261.69;2087174;28;20470;-86
2021/11/12 07:19:51;;;;;;;10.90;6.10;;;;;;;-0.69;100.00;93260.09;2104335;28;20118;-86
2021/11/12 07:20:53;;;;;;;8.73;5.68;;;;;;;-0.69;100.00;93263.47;2112017;28;20039;-85
2021/11/12 07:21:57;;;;;;;8.73;5.22;;;;;;;-0.68;100.00;93254.50;2103813;28;20444;-86
2021/11/12 07:23:01;;;;;;;11.30;6.18;;;;;;;-0.79;100.00;93259.50;2094060;28;20024;-85
2021/11/12 07:24:02;;;;;;;8.38;6.05;;;;;;;-0.70;100.00;93255.94;2087280;28;20052;-86
2021/11/12 07:25:06;;;;;;;6.82;5.15;;;;;;;-0.68;100.00;93251.13;2086036;28;20017;-85
2021/11/12 07:26:08;;;;;;;10.20;5.65;;;;;;;-0.64;100.00;93260.59;2083227;28;20025;-87
2021/11/12 07:27:09;;;;;;;7.70;6.10;;;;;;;-0.60;100.00;93264.06;2082023;28;20116;-87
2021/11/12 07:28:10;;;;;;;11.88;6.47;;;;;;;-0.63;100.00;93264.72;2087134;28;20087;-86
2021/11/12 07:29:11;;;;;;;10.98;6.22;;;;;;;-0.64;100.00;93265.84;2095262;28;20112;-86
2021/11/12 07:30:15;;;;;;;12.20;6.00;;;;;;;-0.57;100.00;93259.97;2095559;28;20027;-86
2021/11/12 07:31:17;;;;;;;9.00;6.30;;;;;;;-0.48;100.00;93259.78;2096390;28;20024;-86
2021/11/12 07:32:19;;;;;;;9.60;6.45;;;;;;;-0.40;100.00;93269.34;2079816;28;20032;-87
2021/11/12 07:33:24;;;;;;;9.50;6.05;;;;;;;-0.34;100.00;93263.50;2095989;28;20028;-86
2021/11/12 07:34:27;;;;;;;11.60;6.05;;;;;;;-0.30;100.00;93258.31;2101422;28;20077;-87
2021/11/12 07:35:33;;;;;;;10.45;6.47;;;;;;;-0.38;100.00;93260.03;2087910;28;20100;-86
2021/11/12 07:36:40;;;;;;;16.83;10.90;;;;;;;-0.38;100.00;93264.53;2088841;28;20461;-86
2021/11/12 07:37:41;;;;;;;12.73;8.75;;;;;;;-0.35;100.00;93267.22;2091331;28;20025;-86
2021/11/12 07:45:35;;;;;;;10.35;5.68;;;;;;;0.02;100.00;93266.09;2114620;28;20027;-85
2021/11/12 07:47:56;;;;;;;7.00;5.38;;;;;;;0.14;100.00;93263.34;2097121;28;20125;-86
2021/11/12 07:49:05;;;;;;;8.38;6.05;;;;;;;0.23;100.00;93259.41;2081316;28;20122;-86
2021/11/12 07:50:08;;;;;;;6.22;4.97;;;;;;;0.24;100.00;93265.41;2087952;28;20420;-86
2021/11/12 07:51:11;;;;;;;8.65;5.43;;;;;;;0.23;100.00;93258.63;2101812;28;20560;-85
2021/11/12 07:52:14;;;;;;;9.60;6.15;;;;;;;0.28;100.00;93257.59;2096726;28;20020;-86
2021/11/12 07:53:15;;;;;;;6.72;5.93;;;;;;;0.21;100.00;93256.34;2088840;28;20028;-86
2021/11/12 07:54:16;;;;;;;9.80;5.95;;;;;;;0.27;100.00;93259.47;2089281;28;20497;-86
2021/11/12 07:55:17;;;;;;;8.77;6.28;;;;;;;0.23;100.00;93258.63;2098093;28;20021;-86
2021/11/12 07:56:18;;;;;;;7.93;5.50;;;;;;;0.50;100.00;93255.00;2107055;28;20016;-87
2021/11/12 07:57:19;;;;;;;9.43;5.95;;;;;;;0.54;100.00;93251.69;2089580;28;20068;-86
2021/11/12 07:58:21;;;;;;;9.52;6.20;;;;;;;0.66;100.00;93256.75;2107038;28;20891;-87
2021/11/12 07:59:22;;;;;;;9.75;7.13;;;;;;;0.61;100.00;93246.53;2100507;28;20026;-87